sensor_id;sensor_type;location;lat;lon;timestamp;pressure;altitude;pressure_sealevel;temperature;humidity
5691;BME280;2870;42.680;23.364;2023-04-15T00:01:19;94347.19;;;8.55;81.15
5691;BME280;2870;42.680;23.364;2023-04-15T00:03:47;94347.91;;;8.63;79.78
5691;BME280;2870;42.680;23.364;2023-04-15T00:06:14;94350.16;;;8.65;80.21
5691;BME280;2870;42.680;23.364;2023-04-15T00:08:42;94355.41;;;8.53;81.85
5691;BME280;2870;42.680;23.364;2023-04-15T00:11:09;94385.06;;;8.48;85.21
5691;BME280;2870;42.680;23.364;2023-04-15T00:13:35;94363.31;;;8.24;88.11
5691;BME280;2870;42.680;23.364;2023-04-15T00:16:03;94376.69;;;8.33;86.32
5691;BME280;2870;42.680;23.364;2023-04-15T00:18:30;94377.63;;;8.28;85.46
5691;BME280;2870;42.680;23.364;2023-04-15T00:20:57;94371.44;;;8.53;85.91
5691;BME280;2870;42.680;23.364;2023-04-15T00:23:25;94372.44;;;8.40;86.07
5691;BME280;2870;42.680;23.364;2023-04-15T00:25:53;94374.09;;;8.35;86.10
5691;BME280;2870;42.680;23.364;2023-04-15T00:28:20;94372.41;;;8.32;86.43
5691;BME280;2870;42.680;23.364;2023-04-15T00:30:47;94375.75;;;8.38;87.03
5691;BME280;2870;42.680;23.364;2023-04-15T00:33:14;94371.44;;;8.53;91.10
5691;BME280;2870;42.680;23.364;2023-04-15T00:35:42;94351.47;;;8.64;89.93
5691;BME280;2870;42.680;23.364;2023-04-15T00:38:09;94374.78;;;8.59;83.73
5691;BME280;2870;42.680;23.364;2023-04-15T00:40:36;94367.75;;;8.42;84.96
5691;BME280;2870;42.680;23.364;2023-04-15T00:43:04;94378.13;;;8.57;84.35
5691;BME280;2870;42.680;23.364;2023-04-15T00:45:31;94358.63;;;8.27;85.92
5691;BME280;2870;42.680;23.364;2023-04-15T00:47:58;94379.66;;;8.35;86.29
5691;BME280;2870;42.680;23.364;2023-04-15T00:50:25;94384.88;;;8.31;86.72
5691;BME280;2870;42.680;23.364;2023-04-15T00:52:52;94385.25;;;8.35;87.59
5691;BME280;2870;42.680;23.364;2023-04-15T00:55:19;94381.34;;;8.38;88.32
5691;BME280;2870;42.680;23.364;2023-04-15T00:57:47;94381.16;;;8.52;86.92
5691;BME280;2870;42.680;23.364;2023-04-15T01:00:15;94372.66;;;8.11;87.46
5691;BME280;2870;42.680;23.364;2023-04-15T01:02:42;94374.19;;;7.89;87.54
5691;BME280;2870;42.680;23.364;2023-04-15T01:05:09;94383.09;;;8.03;87.83
5691;BME280;2870;42.680;23.364;2023-04-15T01:07:36;94385.69;;;8.09;89.32
5691;BME280;2870;42.680;23.364;2023-04-15T01:10:03;94385.31;;;8.05;88.63
5691;BME280;2870;42.680;23.364;2023-04-15T01:12:31;94375.25;;;8.17;88.42
5691;BME280;2870;42.680;23.364;2023-04-15T01:14:58;94384.50;;;8.42;86.60
5691;BME280;2870;42.680;23.364;2023-04-15T01:17:27;94379.13;;;8.29;87.29
5691;BME280;2870;42.680;23.364;2023-04-15T01:19:55;94378.72;;;8.33;88.97
5691;BME280;2870;42.680;23.364;2023-04-15T01:22:22;94374.81;;;8.28;92.04
5691;BME280;2870;42.680;23.364;2023-04-15T01:24:54;94378.56;;;8.38;92.84
5691;BME280;2870;42.680;23.364;2023-04-15T01:27:25;94366.44;;;8.28;91.33
5691;BME280;2870;42.680;23.364;2023-04-15T01:29:52;94360.66;;;8.34;90.09
5691;BME280;2870;42.680;23.364;2023-04-15T01:32:19;94355.47;;;8.38;90.65
5691;BME280;2870;42.680;23.364;2023-04-15T01:34:46;94367.59;;;8.25;90.05
5691;BME280;2870;42.680;23.364;2023-04-15T01:37:13;94370.91;;;8.39;89.26
5691;BME280;2870;42.680;23.364;2023-04-15T01:39:40;94367.38;;;8.38;90.41
5691;BME280;2870;42.680;23.364;2023-04-15T01:42:06;94371.66;;;8.47;90.70
5691;BME280;2870;42.680;23.364;2023-04-15T01:44:35;94380.19;;;8.57;91.90
5691;BME280;2870;42.680;23.364;2023-04-15T01:47:02;94384.34;;;8.88;85.65
5691;BME280;2870;42.680;23.364;2023-04-15T01:49:30;94385.19;;;8.66;85.81
5691;BME280;2870;42.680;23.364;2023-04-15T01:51:57;94385.38;;;8.60;87.64
5691;BME280;2870;42.680;23.364;2023-04-15T01:54:23;94362.53;;;8.39;89.81
5691;BME280;2870;42.680;23.364;2023-04-15T01:56:50;94391.41;;;8.34;88.88
5691;BME280;2870;42.680;23.364;2023-04-15T01:59:17;94401.13;;;8.17;89.25
5691;BME280;2870;42.680;23.364;2023-04-15T02:01:45;94403.22;;;8.02;88.34
5691;BME280;2870;42.680;23.364;2023-04-15T02:04:12;94393.13;;;8.14;89.37
5691;BME280;2870;42.680;23.364;2023-04-15T02:06:41;94394.22;;;8.26;88.87
5691;BME280;2870;42.680;23.364;2023-04-15T02:09:08;94394.59;;;8.45;85.05
5691;BME280;2870;42.680;23.364;2023-04-15T02:11:35;94388.22;;;8.45;82.20
5691;BME280;2870;42.680;23.364;2023-04-15T02:14:03;94386.31;;;8.63;81.90
5691;BME280;2870;42.680;23.364;2023-04-15T02:16:31;94387.44;;;8.60;82.69
5691;BME280;2870;42.680;23.364;2023-04-15T02:19:00;94382.66;;;8.30;81.54
5691;BME280;2870;42.680;23.364;2023-04-15T02:21:27;94382.88;;;8.16;86.44
5691;BME280;2870;42.680;23.364;2023-04-15T02:23:54;94381.34;;;8.38;86.80
5691;BME280;2870;42.680;23.364;2023-04-15T02:26:21;94374.34;;;8.07;87.57
5691;BME280;2870;42.680;23.364;2023-04-15T02:28:49;94376.19;;;8.12;84.26
5691;BME280;2870;42.680;23.364;2023-04-15T02:31:16;94387.59;;;7.83;84.78
5691;BME280;2870;42.680;23.364;2023-04-15T02:33:43;94381.63;;;7.79;85.42
5691;BME280;2870;42.680;23.364;2023-04-15T02:36:12;94372.31;;;7.84;84.92
5691;BME280;2870;42.680;23.364;2023-04-15T02:38:39;94374.91;;;7.82;87.15
5691;BME280;2870;42.680;23.364;2023-04-15T02:41:08;94375.88;;;7.77;88.46
5691;BME280;2870;42.680;23.364;2023-04-15T02:43:35;94382.75;;;7.38;89.11
5691;BME280;2870;42.680;23.364;2023-04-15T02:46:02;94383.69;;;7.33;90.29
5691;BME280;2870;42.680;23.364;2023-04-15T02:48:29;94374.94;;;7.75;86.77
5691;BME280;2870;42.680;23.364;2023-04-15T02:51:11;94387.00;;;7.54;86.46
5691;BME280;2870;42.680;23.364;2023-04-15T02:53:38;94391.66;;;7.21;88.53
5691;BME280;2870;42.680;23.364;2023-04-15T02:56:06;94397.97;;;7.29;88.52
5691;BME280;2870;42.680;23.364;2023-04-15T02:58:34;94400.41;;;7.40;86.46
5691;BME280;2870;42.680;23.364;2023-04-15T03:01:01;94403.47;;;6.83;87.05
5691;BME280;2870;42.680;23.364;2023-04-15T03:03:28;94400.22;;;6.20;84.56
5691;BME280;2870;42.680;23.364;2023-04-15T03:05:55;94400.28;;;5.78;86.71
5691;BME280;2870;42.680;23.364;2023-04-15T03:08:23;94397.28;;;5.76;87.77
5691;BME280;2870;42.680;23.364;2023-04-15T03:10:50;94398.78;;;5.98;87.62
5691;BME280;2870;42.680;23.364;2023-04-15T03:13:19;94400.28;;;5.78;85.96
5691;BME280;2870;42.680;23.364;2023-04-15T03:15:46;94373.44;;;5.60;87.45
5691;BME280;2870;42.680;23.364;2023-04-15T03:18:13;94405.47;;;5.74;88.60
5691;BME280;2870;42.680;23.364;2023-04-15T03:20:40;94413.59;;;5.72;88.40
5691;BME280;2870;42.680;23.364;2023-04-15T03:23:07;94421.34;;;5.45;87.96
5691;BME280;2870;42.680;23.364;2023-04-15T03:25:35;94417.16;;;5.52;86.00
5691;BME280;2870;42.680;23.364;2023-04-15T03:28:02;94414.59;;;6.03;85.39
5691;BME280;2870;42.680;23.364;2023-04-15T03:30:29;94424.16;;;5.95;83.38
5691;BME280;2870;42.680;23.364;2023-04-15T03:32:56;94435.09;;;5.72;84.73
5691;BME280;2870;42.680;23.364;2023-04-15T03:35:23;94416.84;;;6.13;85.57
5691;BME280;2870;42.680;23.364;2023-04-15T03:37:50;94425.28;;;5.92;86.23
5691;BME280;2870;42.680;23.364;2023-04-15T03:40:17;94444.88;;;5.86;86.55
5691;BME280;2870;42.680;23.364;2023-04-15T03:42:45;94429.34;;;6.19;86.19
5691;BME280;2870;42.680;23.364;2023-04-15T03:45:12;94422.59;;;6.35;85.28
5691;BME280;2870;42.680;23.364;2023-04-15T03:47:38;94435.41;;;6.10;84.54
5691;BME280;2870;42.680;23.364;2023-04-15T03:50:06;94449.19;;;6.16;87.71
5691;BME280;2870;42.680;23.364;2023-04-15T03:52:33;94457.69;;;6.10;87.90
5691;BME280;2870;42.680;23.364;2023-04-15T03:55:00;94449.81;;;6.01;89.29
5691;BME280;2870;42.680;23.364;2023-04-15T03:57:27;94456.91;;;6.02;87.14
5691;BME280;2870;42.680;23.364;2023-04-15T03:59:55;94459.34;;;5.84;87.92
5691;BME280;2870;42.680;23.364;2023-04-15T04:02:23;94448.53;;;6.30;88.33
5691;BME280;2870;42.680;23.364;2023-04-15T04:04:50;94454.06;;;6.23;89.36
5691;BME280;2870;42.680;23.364;2023-04-15T04:07:17;94451.25;;;6.51;87.57
5691;BME280;2870;42.680;23.364;2023-04-15T04:09:44;94459.78;;;6.17;87.20
5691;BME280;2870;42.680;23.364;2023-04-15T04:12:11;94454.72;;;6.08;88.33
5691;BME280;2870;42.680;23.364;2023-04-15T04:14:38;94456.59;;;6.13;88.43
5691;BME280;2870;42.680;23.364;2023-04-15T04:17:06;94456.78;;;6.15;90.01
5691;BME280;2870;42.680;23.364;2023-04-15T04:19:33;94461.88;;;6.24;89.53
5691;BME280;2870;42.680;23.364;2023-04-15T04:22:00;94462.91;;;6.14;88.63
5691;BME280;2870;42.680;23.364;2023-04-15T04:24:26;94463.66;;;6.14;87.80
5691;BME280;2870;42.680;23.364;2023-04-15T04:26:53;94460.72;;;6.20;88.47
5691;BME280;2870;42.680;23.364;2023-04-15T04:29:20;94465.28;;;6.38;88.60
5691;BME280;2870;42.680;23.364;2023-04-15T04:31:47;94464.22;;;6.41;89.27
5691;BME280;2870;42.680;23.364;2023-04-15T04:34:15;94465.47;;;6.40;89.29
5691;BME280;2870;42.680;23.364;2023-04-15T04:36:42;94466.88;;;6.54;88.60
5691;BME280;2870;42.680;23.364;2023-04-15T04:39:09;94466.59;;;6.73;90.29
5691;BME280;2870;42.680;23.364;2023-04-15T04:41:36;94472.25;;;6.96;90.63
5691;BME280;2870;42.680;23.364;2023-04-15T04:44:03;94473.91;;;6.91;91.42
5691;BME280;2870;42.680;23.364;2023-04-15T04:46:29;94473.56;;;6.95;92.06
5691;BME280;2870;42.680;23.364;2023-04-15T04:48:56;94477.56;;;7.30;91.33
5691;BME280;2870;42.680;23.364;2023-04-15T04:51:24;94480.94;;;7.36;89.09
5691;BME280;2870;42.680;23.364;2023-04-15T04:53:52;94486.16;;;7.32;88.04
5691;BME280;2870;42.680;23.364;2023-04-15T04:56:19;94485.03;;;7.35;88.87
5691;BME280;2870;42.680;23.364;2023-04-15T04:58:46;94487.66;;;7.49;88.75
5691;BME280;2870;42.680;23.364;2023-04-15T05:01:13;94493.06;;;7.47;87.54
5691;BME280;2870;42.680;23.364;2023-04-15T05:03:40;94501.44;;;7.47;85.87
5691;BME280;2870;42.680;23.364;2023-04-15T05:06:07;94496.59;;;7.39;85.19
5691;BME280;2870;42.680;23.364;2023-04-15T05:08:35;94504.78;;;7.37;84.05
5691;BME280;2870;42.680;23.364;2023-04-15T05:11:02;94506.44;;;7.48;83.38
5691;BME280;2870;42.680;23.364;2023-04-15T05:13:29;94510.53;;;7.32;82.07
5691;BME280;2870;42.680;23.364;2023-04-15T05:15:56;94517.09;;;7.57;81.74
5691;BME280;2870;42.680;23.364;2023-04-15T05:18:23;94522.31;;;7.76;82.33
5691;BME280;2870;42.680;23.364;2023-04-15T05:20:49;94528.69;;;7.92;81.54
5691;BME280;2870;42.680;23.364;2023-04-15T05:23:16;94527.75;;;8.05;82.08
5691;BME280;2870;42.680;23.364;2023-04-15T05:25:44;94531.69;;;8.17;82.48
5691;BME280;2870;42.680;23.364;2023-04-15T05:28:11;94522.72;;;8.03;78.98
5691;BME280;2870;42.680;23.364;2023-04-15T05:30:39;94533.38;;;8.12;79.12
5691;BME280;2870;42.680;23.364;2023-04-15T05:33:05;94531.13;;;8.18;77.58
5691;BME280;2870;42.680;23.364;2023-04-15T05:35:32;94524.44;;;8.37;79.53
5691;BME280;2870;42.680;23.364;2023-04-15T05:37:59;94524.00;;;8.86;78.84
5691;BME280;2870;42.680;23.364;2023-04-15T05:40:26;94531.97;;;9.05;80.11
5691;BME280;2870;42.680;23.364;2023-04-15T05:42:54;94528.19;;;9.18;78.34
5691;BME280;2870;42.680;23.364;2023-04-15T05:45:21;94527.44;;;9.17;75.86
5691;BME280;2870;42.680;23.364;2023-04-15T05:47:48;94523.78;;;8.92;77.69
5691;BME280;2870;42.680;23.364;2023-04-15T05:50:18;94529.31;;;9.07;76.38
5691;BME280;2870;42.680;23.364;2023-04-15T05:52:45;94530.06;;;9.15;75.32
5691;BME280;2870;42.680;23.364;2023-04-15T05:55:12;94530.44;;;9.19;77.12
5691;BME280;2870;42.680;23.364;2023-04-15T05:57:39;94526.06;;;9.74;75.45
5691;BME280;2870;42.680;23.364;2023-04-15T06:00:08;94543.38;;;10.13;71.91
5691;BME280;2870;42.680;23.364;2023-04-15T06:02:35;94544.50;;;10.09;70.75
5691;BME280;2870;42.680;23.364;2023-04-15T06:05:02;94547.31;;;9.77;71.07
5691;BME280;2870;42.680;23.364;2023-04-15T06:07:34;94561.84;;;9.83;71.21
5691;BME280;2870;42.680;23.364;2023-04-15T06:10:01;94560.41;;;9.74;68.47
5691;BME280;2870;42.680;23.364;2023-04-15T06:12:28;94553.66;;;10.10;68.38
5691;BME280;2870;42.680;23.364;2023-04-15T06:14:55;94559.00;;;10.48;69.73
5691;BME280;2870;42.680;23.364;2023-04-15T06:17:23;94555.75;;;10.77;66.90
5691;BME280;2870;42.680;23.364;2023-04-15T06:19:50;94556.88;;;10.56;65.88
5691;BME280;2870;42.680;23.364;2023-04-15T06:22:20;94568.56;;;10.87;65.67
5691;BME280;2870;42.680;23.364;2023-04-15T06:24:46;94564.72;;;11.35;63.84
5691;BME280;2870;42.680;23.364;2023-04-15T06:27:13;94563.91;;;11.07;64.83
5691;BME280;2870;42.680;23.364;2023-04-15T06:29:40;94578.91;;;11.37;65.37
5691;BME280;2870;42.680;23.364;2023-04-15T06:32:07;94572.41;;;11.79;67.02
5691;BME280;2870;42.680;23.364;2023-04-15T06:34:35;94576.81;;;11.72;64.47
5691;BME280;2870;42.680;23.364;2023-04-15T06:37:02;94582.81;;;11.41;62.99
5691;BME280;2870;42.680;23.364;2023-04-15T06:39:29;94587.66;;;11.76;62.78
5691;BME280;2870;42.680;23.364;2023-04-15T06:41:55;94585.88;;;12.25;61.66
5691;BME280;2870;42.680;23.364;2023-04-15T06:44:22;94587.19;;;11.97;61.13
5691;BME280;2870;42.680;23.364;2023-04-15T06:46:49;94585.56;;;11.93;60.36
5691;BME280;2870;42.680;23.364;2023-04-15T06:49:16;94592.03;;;11.86;61.71
5691;BME280;2870;42.680;23.364;2023-04-15T06:51:44;94598.28;;;11.94;60.60
5691;BME280;2870;42.680;23.364;2023-04-15T06:54:11;94598.78;;;12.28;60.89
5691;BME280;2870;42.680;23.364;2023-04-15T06:56:37;94598.50;;;12.60;61.53
5691;BME280;2870;42.680;23.364;2023-04-15T06:59:04;94597.31;;;13.19;57.36
5691;BME280;2870;42.680;23.364;2023-04-15T07:01:31;94603.75;;;13.68;56.36
5691;BME280;2870;42.680;23.364;2023-04-15T07:03:58;94601.47;;;14.05;55.37
5691;BME280;2870;42.680;23.364;2023-04-15T07:06:25;94600.72;;;14.15;54.01
5691;BME280;2870;42.680;23.364;2023-04-15T07:08:54;94596.38;;;14.23;52.83
5691;BME280;2870;42.680;23.364;2023-04-15T07:11:21;94599.38;;;14.16;54.19
5691;BME280;2870;42.680;23.364;2023-04-15T07:13:48;94601.50;;;13.96;55.04
5691;BME280;2870;42.680;23.364;2023-04-15T07:16:15;94599.06;;;14.21;54.57
5691;BME280;2870;42.680;23.364;2023-04-15T07:18:42;94598.81;;;14.68;51.72
5691;BME280;2870;42.680;23.364;2023-04-15T07:21:08;94594.59;;;14.38;51.95
5691;BME280;2870;42.680;23.364;2023-04-15T07:23:35;94598.09;;;13.97;52.79
5691;BME280;2870;42.680;23.364;2023-04-15T07:26:04;94607.03;;;14.85;53.25
5691;BME280;2870;42.680;23.364;2023-04-15T07:28:31;94605.78;;;15.29;52.21
5691;BME280;2870;42.680;23.364;2023-04-15T07:30:57;94602.72;;;15.68;52.87
5691;BME280;2870;42.680;23.364;2023-04-15T07:33:24;94609.47;;;15.96;49.16
5691;BME280;2870;42.680;23.364;2023-04-15T07:35:51;94607.53;;;16.10;49.73
5691;BME280;2870;42.680;23.364;2023-04-15T07:38:18;94621.94;;;15.81;51.71
5691;BME280;2870;42.680;23.364;2023-04-15T07:40:45;94605.19;;;15.73;49.90
5691;BME280;2870;42.680;23.364;2023-04-15T07:43:14;94599.41;;;16.04;49.62
5691;BME280;2870;42.680;23.364;2023-04-15T07:45:41;94592.41;;;17.44;46.07
5691;BME280;2870;42.680;23.364;2023-04-15T07:48:07;94595.13;;;17.42;43.76
5691;BME280;2870;42.680;23.364;2023-04-15T07:50:34;94603.81;;;17.81;44.78
5691;BME280;2870;42.680;23.364;2023-04-15T07:53:01;94616.88;;;18.37;44.24
5691;BME280;2870;42.680;23.364;2023-04-15T07:55:29;94617.50;;;17.73;46.18
5691;BME280;2870;42.680;23.364;2023-04-15T07:57:56;94622.09;;;18.54;45.83
5691;BME280;2870;42.680;23.364;2023-04-15T08:00:24;94615.16;;;18.58;42.11
5691;BME280;2870;42.680;23.364;2023-04-15T08:02:51;94627.88;;;18.82;42.12
5691;BME280;2870;42.680;23.364;2023-04-15T08:05:18;94629.94;;;19.07;42.87
5691;BME280;2870;42.680;23.364;2023-04-15T08:07:45;94627.66;;;18.78;41.66
5691;BME280;2870;42.680;23.364;2023-04-15T08:10:13;94627.28;;;18.97;42.57
5691;BME280;2870;42.680;23.364;2023-04-15T08:12:40;94627.31;;;19.66;39.53
5691;BME280;2870;42.680;23.364;2023-04-15T08:15:08;94618.50;;;20.03;38.97
5691;BME280;2870;42.680;23.364;2023-04-15T08:17:36;94623.81;;;20.25;39.11
5691;BME280;2870;42.680;23.364;2023-04-15T08:20:04;94627.31;;;19.80;39.24
5691;BME280;2870;42.680;23.364;2023-04-15T08:22:31;94624.44;;;19.39;40.37
5691;BME280;2870;42.680;23.364;2023-04-15T08:24:58;94622.25;;;19.37;42.33
5691;BME280;2870;42.680;23.364;2023-04-15T08:27:25;94622.03;;;19.88;43.42
5691;BME280;2870;42.680;23.364;2023-04-15T08:29:52;94621.19;;;19.72;40.53
5691;BME280;2870;42.680;23.364;2023-04-15T08:32:19;94622.31;;;20.83;39.29
5691;BME280;2870;42.680;23.364;2023-04-15T08:34:48;94622.06;;;21.08;38.56
5691;BME280;2870;42.680;23.364;2023-04-15T08:37:15;94608.81;;;21.15;37.89
5691;BME280;2870;42.680;23.364;2023-04-15T08:39:42;94616.91;;;20.44;38.45
5691;BME280;2870;42.680;23.364;2023-04-15T08:42:11;94603.53;;;20.62;40.06
5691;BME280;2870;42.680;23.364;2023-04-15T08:44:42;94598.13;;;20.84;35.57
5691;BME280;2870;42.680;23.364;2023-04-15T08:47:12;94612.31;;;21.29;37.32
5691;BME280;2870;42.680;23.364;2023-04-15T08:49:39;94613.75;;;20.37;38.41
5691;BME280;2870;42.680;23.364;2023-04-15T08:52:08;94595.84;;;21.28;37.98
5691;BME280;2870;42.680;23.364;2023-04-15T08:54:35;94596.94;;;20.73;39.45
5691;BME280;2870;42.680;23.364;2023-04-15T08:57:03;94602.44;;;21.48;34.04
5691;BME280;2870;42.680;23.364;2023-04-15T08:59:30;94593.03;;;21.61;34.19
5691;BME280;2870;42.680;23.364;2023-04-15T09:01:57;94589.50;;;21.45;36.80
5691;BME280;2870;42.680;23.364;2023-04-15T09:04:24;94594.56;;;20.38;34.64
5691;BME280;2870;42.680;23.364;2023-04-15T09:06:50;94594.63;;;19.81;36.55
5691;BME280;2870;42.680;23.364;2023-04-15T09:09:19;94587.28;;;20.80;35.44
5691;BME280;2870;42.680;23.364;2023-04-15T09:11:46;94586.16;;;20.26;35.64
5691;BME280;2870;42.680;23.364;2023-04-15T09:14:14;94570.16;;;20.64;36.12
5691;BME280;2870;42.680;23.364;2023-04-15T09:16:57;94568.25;;;20.69;35.72
5691;BME280;2870;42.680;23.364;2023-04-15T09:19:24;94571.75;;;21.64;32.24
5691;BME280;2870;42.680;23.364;2023-04-15T09:21:53;94566.91;;;21.51;32.86
5691;BME280;2870;42.680;23.364;2023-04-15T09:24:22;94565.75;;;21.74;33.26
5691;BME280;2870;42.680;23.364;2023-04-15T09:26:51;94553.53;;;20.75;34.90
5691;BME280;2870;42.680;23.364;2023-04-15T09:29:19;94561.16;;;21.02;34.21
5691;BME280;2870;42.680;23.364;2023-04-15T09:31:46;94568.44;;;20.89;33.20
5691;BME280;2870;42.680;23.364;2023-04-15T09:34:13;94569.16;;;19.28;36.38
5691;BME280;2870;42.680;23.364;2023-04-15T09:36:52;94575.00;;;19.87;34.02
5691;BME280;2870;42.680;23.364;2023-04-15T09:39:21;94562.97;;;20.48;35.98
5691;BME280;2870;42.680;23.364;2023-04-15T09:42:03;94570.16;;;20.49;36.17
5691;BME280;2870;42.680;23.364;2023-04-15T09:44:32;94569.84;;;19.83;35.49
5691;BME280;2870;42.680;23.364;2023-04-15T09:46:59;94570.91;;;18.66;37.05
5691;BME280;2870;42.680;23.364;2023-04-15T09:49:26;94558.44;;;19.26;37.22
5691;BME280;2870;42.680;23.364;2023-04-15T09:51:57;94561.47;;;19.58;37.32
5691;BME280;2870;42.680;23.364;2023-04-15T09:54:32;94563.91;;;19.09;37.76
5691;BME280;2870;42.680;23.364;2023-04-15T09:57:04;94582.81;;;19.87;35.28
5691;BME280;2870;42.680;23.364;2023-04-15T09:59:31;94575.19;;;19.20;33.86
5691;BME280;2870;42.680;23.364;2023-04-15T10:01:58;94565.31;;;18.29;35.01
5691;BME280;2870;42.680;23.364;2023-04-15T10:04:26;94567.78;;;18.88;38.16
5691;BME280;2870;42.680;23.364;2023-04-15T10:06:54;94572.44;;;19.64;34.71
5691;BME280;2870;42.680;23.364;2023-04-15T10:09:22;94558.53;;;19.42;34.80
5691;BME280;2870;42.680;23.364;2023-04-15T10:11:50;94555.03;;;19.57;33.68
5691;BME280;2870;42.680;23.364;2023-04-15T10:14:19;94557.28;;;19.18;37.49
5691;BME280;2870;42.680;23.364;2023-04-15T10:16:47;94552.63;;;19.38;36.55
5691;BME280;2870;42.680;23.364;2023-04-15T10:19:18;94546.34;;;19.12;36.93
5691;BME280;2870;42.680;23.364;2023-04-15T10:21:48;94546.38;;;19.55;36.77
5691;BME280;2870;42.680;23.364;2023-04-15T10:24:16;94532.50;;;20.21;34.21
5691;BME280;2870;42.680;23.364;2023-04-15T10:26:44;94541.31;;;20.56;33.52
5691;BME280;2870;42.680;23.364;2023-04-15T10:29:13;94524.03;;;20.68;31.09
5691;BME280;2870;42.680;23.364;2023-04-15T10:31:40;94524.91;;;21.04;32.21
5691;BME280;2870;42.680;23.364;2023-04-15T10:34:07;94528.16;;;20.81;30.11
5691;BME280;2870;42.680;23.364;2023-04-15T10:36:35;94521.41;;;20.27;31.49
5691;BME280;2870;42.680;23.364;2023-04-15T10:39:38;94525.03;;;20.13;33.11
5691;BME280;2870;42.680;23.364;2023-04-15T10:42:05;94526.50;;;19.85;31.88
5691;BME280;2870;42.680;23.364;2023-04-15T10:44:34;94513.97;;;20.35;31.27
5691;BME280;2870;42.680;23.364;2023-04-15T10:47:05;94524.53;;;20.33;31.54
5691;BME280;2870;42.680;23.364;2023-04-15T10:49:42;94520.38;;;19.47;33.50
5691;BME280;2870;42.680;23.364;2023-04-15T10:52:13;94522.75;;;19.10;33.51
5691;BME280;2870;42.680;23.364;2023-04-15T10:54:40;94523.38;;;19.08;35.04
5691;BME280;2870;42.680;23.364;2023-04-15T10:57:13;94527.16;;;18.71;33.76
5691;BME280;2870;42.680;23.364;2023-04-15T11:00:08;94520.53;;;19.08;33.97
5691;BME280;2870;42.680;23.364;2023-04-15T11:02:46;94516.06;;;17.85;34.32
5691;BME280;2870;42.680;23.364;2023-04-15T11:05:14;94526.63;;;18.22;34.79
5691;BME280;2870;42.680;23.364;2023-04-15T11:07:49;94511.00;;;18.09;34.54
5691;BME280;2870;42.680;23.364;2023-04-15T11:10:49;94517.50;;;19.18;33.15
5691;BME280;2870;42.680;23.364;2023-04-15T11:13:24;94518.72;;;19.42;32.75
5691;BME280;2870;42.680;23.364;2023-04-15T11:15:58;94516.56;;;19.56;32.98
5691;BME280;2870;42.680;23.364;2023-04-15T11:18:30;94514.25;;;19.53;32.13
5691;BME280;2870;42.680;23.364;2023-04-15T11:20:58;94509.69;;;19.04;32.40
5691;BME280;2870;42.680;23.364;2023-04-15T11:23:34;94496.22;;;18.91;34.25
5691;BME280;2870;42.680;23.364;2023-04-15T11:26:02;94501.72;;;19.44;34.87
5691;BME280;2870;42.680;23.364;2023-04-15T11:28:32;94508.19;;;19.88;32.23
5691;BME280;2870;42.680;23.364;2023-04-15T11:31:06;94499.03;;;20.05;31.90
5691;BME280;2870;42.680;23.364;2023-04-15T11:33:35;94504.03;;;20.21;31.24
5691;BME280;2870;42.680;23.364;2023-04-15T11:36:02;94508.94;;;20.04;31.42
5691;BME280;2870;42.680;23.364;2023-04-15T11:38:29;94511.16;;;20.06;31.74
5691;BME280;2870;42.680;23.364;2023-04-15T11:40:57;94508.94;;;20.04;33.03
5691;BME280;2870;42.680;23.364;2023-04-15T11:43:24;94510.88;;;20.00;31.74
5691;BME280;2870;42.680;23.364;2023-04-15T11:45:53;94507.88;;;19.11;33.49
5691;BME280;2870;42.680;23.364;2023-04-15T11:48:24;94509.22;;;19.51;32.17
5691;BME280;2870;42.680;23.364;2023-04-15T11:50:55;94484.53;;;19.56;30.16
5691;BME280;2870;42.680;23.364;2023-04-15T11:53:22;94501.53;;;19.83;28.18
5691;BME280;2870;42.680;23.364;2023-04-15T11:55:51;94491.41;;;20.55;26.93
5691;BME280;2870;42.680;23.364;2023-04-15T11:58:20;94489.84;;;20.07;26.42
5691;BME280;2870;42.680;23.364;2023-04-15T12:00:49;94496.53;;;19.68;26.28
5691;BME280;2870;42.680;23.364;2023-04-15T12:03:20;94485.72;;;19.65;27.28
5691;BME280;2870;42.680;23.364;2023-04-15T12:06:08;94484.19;;;19.20;28.07
5691;BME280;2870;42.680;23.364;2023-04-15T12:08:55;94491.84;;;19.59;27.83
5691;BME280;2870;42.680;23.364;2023-04-15T12:11:28;94501.22;;;19.48;27.30
5691;BME280;2870;42.680;23.364;2023-04-15T12:13:57;94485.66;;;18.52;27.33
5691;BME280;2870;42.680;23.364;2023-04-15T12:16:24;94485.56;;;18.50;27.28
5691;BME280;2870;42.680;23.364;2023-04-15T12:18:55;94486.22;;;19.18;27.21
5691;BME280;2870;42.680;23.364;2023-04-15T12:21:24;94479.50;;;19.84;27.92
5691;BME280;2870;42.680;23.364;2023-04-15T12:23:53;94488.50;;;19.21;26.32
5691;BME280;2870;42.680;23.364;2023-04-15T12:26:25;94494.75;;;19.18;27.77
5691;BME280;2870;42.680;23.364;2023-04-15T12:28:53;94489.50;;;19.69;27.86
5691;BME280;2870;42.680;23.364;2023-04-15T12:31:20;94482.69;;;20.06;26.57
5691;BME280;2870;42.680;23.364;2023-04-15T12:33:47;94485.41;;;19.88;26.52
5691;BME280;2870;42.680;23.364;2023-04-15T12:36:14;94495.66;;;19.36;27.56
5691;BME280;2870;42.680;23.364;2023-04-15T12:38:42;94484.81;;;19.76;28.25
5691;BME280;2870;42.680;23.364;2023-04-15T12:41:09;94491.66;;;20.00;27.83
5691;BME280;2870;42.680;23.364;2023-04-15T12:43:35;94488.63;;;19.10;27.15
5691;BME280;2870;42.680;23.364;2023-04-15T12:46:02;94489.75;;;19.46;27.92
5691;BME280;2870;42.680;23.364;2023-04-15T12:48:31;94485.56;;;19.05;28.35
5691;BME280;2870;42.680;23.364;2023-04-15T12:50:58;94502.09;;;19.23;27.89
5691;BME280;2870;42.680;23.364;2023-04-15T12:53:25;94488.53;;;19.94;27.60
5691;BME280;2870;42.680;23.364;2023-04-15T12:55:53;94488.09;;;20.00;28.50
5691;BME280;2870;42.680;23.364;2023-04-15T12:58:20;94500.53;;;19.77;28.33
5691;BME280;2870;42.680;23.364;2023-04-15T13:00:47;94501.59;;;19.56;27.35
5691;BME280;2870;42.680;23.364;2023-04-15T13:03:14;94496.84;;;19.03;27.66
5691;BME280;2870;42.680;23.364;2023-04-15T13:05:42;94502.00;;;19.07;28.09
5691;BME280;2870;42.680;23.364;2023-04-15T13:08:08;94505.81;;;18.98;28.39
5691;BME280;2870;42.680;23.364;2023-04-15T13:10:35;94493.38;;;18.91;28.16
5691;BME280;2870;42.680;23.364;2023-04-15T13:13:04;94499.91;;;19.08;28.92
5691;BME280;2870;42.680;23.364;2023-04-15T13:15:31;94500.72;;;19.24;28.24
5691;BME280;2870;42.680;23.364;2023-04-15T13:17:58;94498.84;;;19.15;28.80
5691;BME280;2870;42.680;23.364;2023-04-15T13:20:25;94488.00;;;19.11;28.95